Time;durP1;ratioP1;P1;durP2;ratioP2;P2;SDS_P1;SDS_P2;PMS_P1;PMS_P2;Temp;Humidity;BMP_temperature;BMP_pressure;BME280_temperature;BME280_humidity;BME280_pressure;Samples;Min_cycle;Max_cycle;Signal;HPM_P1;HPM_P2
2021/03/08 05:00:36;;;;;;;12.23;3.50;;;-1.70;99.90;;;;;;6144025;23;20216;-79
2021/03/08 05:03:04;;;;;;;7.93;2.50;;;-1.70;99.90;;;;;;6188582;23;20171;-78
2021/03/08 05:05:30;;;;;;;6.43;2.10;;;-1.80;99.90;;;;;;6189064;23;20156;-79
2021/03/08 05:08:00;;;;;;;8.13;2.47;;;-1.80;99.90;;;;;;6189154;23;20187;-80
2021/03/08 05:10:28;;;;;;;6.20;2.00;;;-1.80;99.90;;;;;;6187348;23;20167;-80
2021/03/08 05:12:57;;;;;;;7.00;2.63;;;-1.90;99.90;;;;;;6186620;23;20175;-79
2021/03/08 05:15:25;;;;;;;9.20;2.00;;;-1.80;99.90;;;;;;6162191;23;20187;-79
2021/03/08 05:17:54;;;;;;;5.57;2.00;;;-1.80;99.90;;;;;;6186848;23;20167;-79
2021/03/08 05:20:21;;;;;;;9.17;2.30;;;-1.90;99.90;;;;;;6160108;23;20194;-79
2021/03/08 05:22:47;;;;;;;6.17;1.97;;;-1.80;99.90;;;;;;6160532;23;20893;-80
2021/03/08 05:25:14;;;;;;;9.70;2.47;;;-1.90;99.90;;;;;;6185252;23;20148;-79
2021/03/08 05:27:42;;;;;;;7.93;2.33;;;-1.90;99.90;;;;;;6160548;23;20152;-80
2021/03/08 05:30:09;;;;;;;6.87;2.47;;;-1.90;99.90;;;;;;6160491;23;20176;-80
2021/03/08 05:32:41;;;;;;;9.83;2.37;;;-1.90;99.90;;;;;;6160170;23;20183;-80
2021/03/08 05:35:07;;;;;;;17.47;2.47;;;-1.90;99.90;;;;;;6186712;23;20137;-80
2021/03/08 05:37:34;;;;;;;4.97;2.00;;;-1.90;99.90;;;;;;6160381;23;20478;-80
2021/03/08 05:40:04;;;;;;;6.33;1.77;;;-1.80;99.90;;;;;;6184866;23;20184;-80
2021/03/08 05:42:34;;;;;;;7.23;2.40;;;-1.90;99.90;;;;;;6185085;23;20176;-80
2021/03/08 05:45:43;;;;;;;8.57;2.70;;;-2.00;99.90;;;;;;6159652;23;20140;-80
2021/03/08 05:48:40;;;;;;;7.43;2.17;;;-2.00;99.90;;;;;;6186932;23;20556;-79
2021/03/08 05:51:48;;;;;;;5.80;1.93;;;-2.00;99.90;;;;;;6122149;23;20251;-80
2021/03/08 05:54:37;;;;;;;8.90;2.03;;;-2.00;99.90;;;;;;6159599;23;20199;-79
2021/03/08 05:57:25;;;;;;;4.57;1.70;;;-2.00;99.90;;;;;;6155697;23;20137;-80
2021/03/08 05:59:53;;;;;;;6.67;2.17;;;-2.00;99.90;;;;;;6158080;23;20155;-81
2021/03/08 06:02:37;;;;;;;6.43;2.13;;;-1.90;99.90;;;;;;6157036;23;20660;-80
2021/03/08 06:05:28;;;;;;;11.60;2.90;;;-1.90;99.90;;;;;;6157366;23;20652;-82
2021/03/08 06:08:09;;;;;;;6.97;1.97;;;-1.90;99.90;;;;;;6158285;23;20141;-81
2021/03/08 06:10:40;;;;;;;6.87;2.40;;;-1.90;99.90;;;;;;6158199;23;20152;-81
2021/03/08 06:13:10;;;;;;;10.67;2.10;;;-2.00;99.90;;;;;;6159431;23;20228;-81
2021/03/08 06:15:50;;;;;;;7.00;2.00;;;-2.00;99.90;;;;;;6159476;23;20888;-81
2021/03/08 06:18:17;;;;;;;8.47;1.80;;;-2.00;99.90;;;;;;6159384;23;20207;-80
2021/03/08 06:20:44;;;;;;;7.60;2.27;;;-2.00;99.90;;;;;;6158737;23;20196;-79
2021/03/08 06:23:10;;;;;;;7.97;2.17;;;-2.00;99.90;;;;;;6184174;23;20171;-80
2021/03/08 06:25:39;;;;;;;10.90;2.50;;;-2.00;99.90;;;;;;6159525;23;20148;-80
2021/03/08 06:28:08;;;;;;;6.63;2.00;;;-2.00;99.90;;;;;;6159487;23;20152;-80
2021/03/08 06:30:34;;;;;;;5.93;1.80;;;-2.00;99.90;;;;;;6159511;23;20161;-79
2021/03/08 06:33:00;;;;;;;7.20;2.03;;;-1.90;99.90;;;;;;6183962;23;20291;-79
2021/03/08 06:35:28;;;;;;;8.33;2.00;;;-1.90;99.90;;;;;;6158516;23;20210;-79
2021/03/08 06:37:55;;;;;;;6.57;2.10;;;-1.90;99.90;;;;;;6183456;23;20485;-80
2021/03/08 06:40:30;;;;;;;5.80;2.13;;;-1.80;99.90;;;;;;6183213;23;20188;-80
2021/03/08 06:42:56;;;;;;;8.07;1.83;;;-1.90;99.90;;;;;;6185771;23;20211;-80
2021/03/08 06:45:22;;;;;;;6.53;2.53;;;-1.90;99.90;;;;;;6184267;23;20152;-80
2021/03/08 06:47:48;;;;;;;9.10;3.07;;;-1.80;99.90;;;;;;6159662;23;20206;-80
2021/03/08 06:50:15;;;;;;;14.43;3.53;;;-1.90;99.90;;;;;;6184291;23;20156;-79
2021/03/08 06:52:43;;;;;;;10.40;2.77;;;-1.90;99.90;;;;;;6159482;23;20656;-80
2021/03/08 06:55:10;;;;;;;8.90;2.70;;;-1.80;99.90;;;;;;6184380;23;20564;-79
2021/03/08 06:57:36;;;;;;;9.70;2.77;;;-1.80;99.90;;;;;;6159489;23;20218;-80
2021/03/08 07:00:08;;;;;;;6.63;2.23;;;-1.70;99.90;;;;;;6183964;23;20197;-79
2021/03/08 07:02:44;;;;;;;8.27;2.50;;;-1.70;99.90;;;;;;6159428;23;20552;-80
2021/03/08 07:05:58;;;;;;;10.40;3.03;;;-1.70;99.90;;;;;;6159267;23;20206;-78
2021/03/08 07:08:24;;;;;;;7.23;2.07;;;-1.60;99.90;;;;;;6159013;23;20151;-80
2021/03/08 07:10:49;;;;;;;8.40;2.30;;;-1.50;99.90;;;;;;6184100;23;20176;-79
2021/03/08 07:13:15;;;;;;;11.37;2.53;;;-1.50;99.90;;;;;;6184236;23;20160;-80
2021/03/08 07:16:00;;;;;;;11.27;4.33;;;-1.50;99.90;;;;;;6184041;23;20195;-80
2021/03/08 07:18:26;;;;;;;10.67;3.37;;;-1.40;99.90;;;;;;6185291;23;20644;-80
2021/03/08 07:20:53;;;;;;;14.53;3.10;;;-1.40;99.90;;;;;;6183537;23;20188;-79
2021/03/08 07:23:25;;;;;;;7.97;2.70;;;-1.30;99.90;;;;;;6159233;23;20152;-80
2021/03/08 07:26:14;;;;;;;10.37;3.00;;;-1.20;99.90;;;;;;6159015;23;20600;-80
2021/03/08 07:28:41;;;;;;;8.73;2.43;;;-1.10;99.90;;;;;;6168299;23;20163;-79
2021/03/08 07:31:07;;;;;;;8.43;2.33;;;-1.00;99.90;;;;;;6159265;23;20176;-80
2021/03/08 07:33:33;;;;;;;7.03;2.53;;;-0.90;99.90;;;;;;6158856;23;20604;-80
2021/03/08 07:35:58;;;;;;;9.03;3.03;;;-0.80;99.90;;;;;;6183908;23;20164;-80
2021/03/08 07:38:27;;;;;;;9.73;2.80;;;-0.70;99.90;;;;;;6184154;23;20250;-79
2021/03/08 07:44:15;;;;;;;10.83;3.33;;;-0.60;99.90;;;;;;6185361;23;20168;-79
2021/03/08 07:50:23;;;;;;;14.87;4.57;;;-0.20;99.90;;;;;;6187738;23;20228;-80
2021/03/08 07:52:48;;;;;;;12.03;3.53;;;-0.10;99.90;;;;;;6161899;23;20198;-80
2021/03/08 07:55:14;;;;;;;7.70;3.00;;;0.10;99.90;;;;;;6185859;23;20161;-80
2021/03/08 08:01:07;;;;;;;8.10;2.87;;;0.30;99.90;;;;;;6187324;23;20270;-80
2021/03/08 08:03:35;;;;;;;8.93;3.67;;;0.40;99.90;;;;;;6186361;23;20145;-80
2021/03/08 08:09:26;;;;;;;6.50;2.70;;;0.60;99.90;;;;;;6187600;23;20140;-81
2021/03/08 11:17:57;;;;;;;4.47;0.77;;;7.10;90.70;;;;;;6245071;23;20151;-84
2021/03/08 11:20:30;;;;;;;2.53;0.57;;;7.20;78.20;;;;;;6218244;23;20155;-85
2021/03/08 11:23:47;;;;;;;3.53;0.80;;;7.10;86.50;;;;;;6192295;23;20120;-85
2021/03/08 11:26:14;;;;;;;3.23;0.90;;;7.10;78.80;;;;;;6213080;23;20120;-85
2021/03/08 11:28:41;;;;;;;4.27;0.80;;;7.30;85.50;;;;;;6190500;23;20124;-85
2021/03/08 11:31:29;;;;;;;3.40;0.53;;;7.30;79.20;;;;;;6188503;23;20132;-85
2021/03/08 11:34:22;;;;;;;4.80;0.80;;;7.30;76.20;;;;;;6194383;23;20140;-85
2021/03/08 11:37:10;;;;;;;2.37;0.60;;;7.40;79.90;;;;;;6190722;23;20129;-85
2021/03/08 11:39:43;;;;;;;2.73;0.50;;;7.40;76.80;;;;;;6216462;23;20116;-86
2021/03/08 11:42:11;;;;;;;2.67;0.97;;;7.40;79.50;;;;;;6215982;23;20160;-83
2021/03/08 11:45:01;;;;;;;7.83;1.50;;;7.40;70.60;;;;;;6191522;23;20116;-84
2021/03/08 11:47:40;;;;;;;5.50;1.90;;;7.50;75.70;;;;;;6193825;23;20124;-85
2021/03/08 11:50:12;;;;;;;5.63;1.53;;;7.30;63.40;;;;;;6216397;23;20125;-85
2021/03/08 11:52:46;;;;;;;3.53;1.27;;;7.00;61.20;;;;;;6216692;23;20132;-86
2021/03/08 11:55:12;;;;;;;7.10;1.60;;;7.20;71.80;;;;;;6191396;23;20168;-85
2021/03/08 11:57:43;;;;;;;4.53;1.07;;;7.30;68.20;;;;;;6191458;23;20141;-87
2021/03/08 12:00:10;;;;;;;6.50;1.57;;;7.40;73.30;;;;;;6191550;23;20123;-86
2021/03/08 12:02:37;;;;;;;4.90;1.37;;;7.50;68.10;;;;;;6191054;23;20124;-85
2021/03/08 12:05:04;;;;;;;3.93;0.70;;;7.50;77.60;;;;;;6191691;23;20163;-86
2021/03/08 12:07:30;;;;;;;3.90;1.00;;;7.60;75.80;;;;;;6166357;23;20143;-85
2021/03/08 12:09:56;;;;;;;6.10;0.70;;;7.70;77.60;;;;;;6216264;23;20140;-85
2021/03/08 12:12:46;;;;;;;2.47;0.80;;;7.70;71.70;;;;;;6215819;23;20155;-85
2021/03/08 12:15:15;;;;;;;2.83;0.87;;;7.80;69.80;;;;;;6216273;23;20116;-86
2021/03/08 12:17:41;;;;;;;2.13;0.87;;;7.80;70.00;;;;;;6216015;23;20160;-86
2021/03/08 12:20:09;;;;;;;4.57;1.00;;;7.60;63.20;;;;;;6188932;23;20192;-81
2021/03/08 12:22:40;;;;;;;3.40;0.90;;;7.50;64.00;;;;;;6160778;23;20164;-81
2021/03/08 12:25:08;;;;;;;2.77;1.00;;;7.60;64.50;;;;;;6182943;23;20191;-87
2021/03/08 12:27:38;;;;;;;2.27;0.53;;;7.60;65.90;;;;;;6216436;23;20125;-85
2021/03/08 12:30:08;;;;;;;1.77;0.80;;;7.70;75.60;;;;;;6191100;23;20121;-87
2021/03/08 12:32:34;;;;;;;2.00;0.70;;;7.60;74.70;;;;;;6218200;23;20159;-86
2021/03/08 12:35:00;;;;;;;3.43;1.27;;;7.50;73.10;;;;;;6221205;23;20144;-87
2021/03/08 12:37:26;;;;;;;2.23;0.80;;;7.30;62.60;;;;;;6220835;23;20128;-86
2021/03/08 13:00:35;;;;;;;5.80;1.10;;;7.40;71.60;;;;;;6210614;23;20198;-82
2021/03/08 13:03:01;;;;;;;3.63;1.00;;;7.40;75.80;;;;;;6186711;23;20152;-81
2021/03/08 13:05:28;;;;;;;2.43;1.03;;;7.50;89.60;;;;;;6212035;23;20183;-81
2021/03/08 13:07:53;;;;;;;3.00;0.80;;;7.50;86.30;;;;;;6181679;23;20176;-83
2021/03/08 13:10:20;;;;;;;2.47;0.70;;;7.50;67.60;;;;;;6180806;23;20152;-83
2021/03/08 13:12:45;;;;;;;3.27;0.87;;;7.50;75.70;;;;;;6209600;23;20156;-82
2021/03/08 13:15:11;;;;;;;3.07;0.50;;;7.50;76.60;;;;;;6184835;23;20171;-82
2021/03/08 13:17:38;;;;;;;2.07;0.80;;;7.50;63.70;;;;;;6211000;23;20175;-82
2021/03/08 13:20:16;;;;;;;2.50;0.70;;;7.50;80.70;;;;;;6211081;23;20163;-83
2021/03/08 13:22:42;;;;;;;2.37;0.70;;;7.60;75.40;;;;;;6171027;23;20188;-81
2021/03/08 13:25:09;;;;;;;2.53;0.77;;;7.50;71.00;;;;;;6183463;23;20145;-82
2021/03/08 13:32:46;;;;;;;4.97;1.30;;;7.40;68.90;;;;;;6167416;23;20185;-82
2021/03/08 13:35:15;;;;;;;2.30;0.93;;;7.40;63.70;;;;;;6189123;23;20616;-82
2021/03/08 13:37:41;;;;;;;3.80;0.83;;;7.40;61.00;;;;;;6188335;23;20153;-82
2021/03/08 13:40:09;;;;;;;3.03;0.87;;;7.50;58.80;;;;;;6192226;23;20160;-83
2021/03/08 13:42:35;;;;;;;3.30;0.80;;;7.50;58.70;;;;;;6189100;23;20184;-82
2021/03/08 13:45:01;;;;;;;2.00;0.90;;;7.40;60.70;;;;;;6197375;23;20169;-82
2021/03/08 14:18:33;;;;;;;1.17;0.53;;;7.80;57.80;;;;;;6233250;23;20184;-82
2021/03/08 14:20:59;;;;;;;3.27;0.70;;;7.80;57.30;;;;;;6203018;23;20643;-82
2021/03/08 14:23:25;;;;;;;2.43;0.50;;;7.70;55.00;;;;;;6228948;23;20178;-83
2021/03/08 14:25:51;;;;;;;2.33;0.40;;;7.60;52.70;;;;;;6229023;23;20147;-81
2021/03/08 14:28:17;;;;;;;3.00;0.40;;;7.40;52.70;;;;;;6224923;23;20230;-81
2021/03/08 14:30:42;;;;;;;1.77;0.40;;;7.50;55.90;;;;;;6223766;23;20176;-82
2021/03/08 14:33:08;;;;;;;2.00;0.80;;;7.50;51.30;;;;;;6233910;23;20170;-82
2021/03/08 14:35:34;;;;;;;2.63;0.50;;;7.40;52.70;;;;;;6234811;23;20158;-82
2021/03/08 14:38:00;;;;;;;2.27;0.47;;;7.30;54.00;;;;;;6232215;23;20483;-84
2021/03/08 14:40:30;;;;;;;2.93;0.90;;;7.20;55.80;;;;;;6227036;23;20175;-82
2021/03/08 14:42:59;;;;;;;2.90;0.63;;;7.30;56.70;;;;;;6228221;23;20152;-83
2021/03/08 14:45:26;;;;;;;1.13;0.50;;;7.10;53.80;;;;;;6228878;23;20151;-82
2021/03/08 14:47:51;;;;;;;2.63;0.63;;;7.20;56.50;;;;;;6221777;23;20151;-82
2021/03/08 14:50:19;;;;;;;2.37;0.60;;;7.30;56.00;;;;;;6224599;23;20198;-81
2021/03/08 14:52:45;;;;;;;3.60;0.70;;;7.30;55.30;;;;;;6223569;23;20152;-82
2021/03/08 14:55:11;;;;;;;2.90;0.77;;;7.30;52.00;;;;;;6224250;23;20186;-82
2021/03/08 14:57:37;;;;;;;2.37;0.77;;;7.20;53.20;;;;;;6228338;23;20178;-82
2021/03/08 15:00:06;;;;;;;2.43;0.60;;;7.20;55.20;;;;;;6227832;23;20155;-82
2021/03/08 15:02:32;;;;;;;1.83;0.60;;;7.10;53.40;;;;;;6231350;23;20246;-82
2021/03/08 15:04:58;;;;;;;4.23;0.70;;;7.20;56.60;;;;;;6220545;23;20750;-82
2021/03/08 15:07:24;;;;;;;2.23;0.60;;;7.20;57.30;;;;;;6217959;23;20646;-83
2021/03/08 15:09:50;;;;;;;1.87;0.83;;;7.30;58.70;;;;;;6218683;23;20151;-81
2021/03/08 15:12:16;;;;;;;2.13;0.70;;;7.30;56.90;;;;;;6216911;23;20194;-83
2021/03/08 15:14:41;;;;;;;2.10;0.67;;;7.20;55.50;;;;;;6217818;23;20182;-82
2021/03/08 15:17:07;;;;;;;2.73;0.53;;;7.20;56.60;;;;;;6216838;23;20241;-82
2021/03/08 15:19:33;;;;;;;2.83;0.80;;;7.10;54.70;;;;;;6218641;23;20467;-81
2021/03/08 15:21:58;;;;;;;3.70;0.90;;;7.00;58.30;;;;;;6216789;23;20196;-82
2021/03/08 15:24:24;;;;;;;5.40;0.83;;;7.10;60.10;;;;;;6215925;23;20155;-82
2021/03/08 15:26:49;;;;;;;2.83;0.80;;;7.00;59.30;;;;;;6216084;23;20175;-82
2021/03/08 15:29:15;;;;;;;3.00;0.90;;;6.80;61.40;;;;;;6219551;23;20159;-82
2021/03/08 15:31:40;;;;;;;2.20;0.73;;;6.70;64.80;;;;;;6227693;23;20239;-83
2021/03/08 15:34:06;;;;;;;2.03;0.60;;;6.50;65.40;;;;;;6229307;23;20244;-81
2021/03/08 15:36:31;;;;;;;3.90;0.87;;;6.40;65.80;;;;;;6230167;23;20155;-80
2021/03/08 15:38:57;;;;;;;3.87;0.80;;;6.40;67.00;;;;;;6232694;23;20160;-81
2021/03/08 15:41:24;;;;;;;2.37;0.90;;;6.40;67.60;;;;;;6228436;23;20211;-81
2021/03/08 15:43:49;;;;;;;4.03;1.10;;;6.30;67.50;;;;;;6222163;23;20198;-81
2021/03/08 15:46:15;;;;;;;5.63;1.50;;;6.10;69.70;;;;;;6218804;23;20168;-82
2021/03/08 15:48:40;;;;;;;4.50;0.90;;;6.00;71.70;;;;;;6220174;23;20155;-81
2021/03/08 15:51:06;;;;;;;8.03;1.27;;;5.90;72.70;;;;;;6217191;23;20174;-81
2021/03/08 15:53:38;;;;;;;3.40;0.90;;;5.90;73.40;;;;;;6213678;23;20210;-80
2021/03/08 15:56:12;;;;;;;3.67;1.00;;;5.80;74.00;;;;;;6211048;23;20194;-81
2021/03/08 15:58:38;;;;;;;2.80;1.00;;;5.80;78.30;;;;;;6210437;23;20250;-82
2021/03/08 16:01:04;;;;;;;3.83;1.00;;;5.80;79.40;;;;;;6211954;23;20273;-81
2021/03/08 16:03:30;;;;;;;3.00;1.20;;;5.70;82.90;;;;;;6214696;23;20148;-82
2021/03/08 16:05:55;;;;;;;3.93;0.90;;;5.70;82.20;;;;;;6211781;23;20155;-83
2021/03/08 16:08:23;;;;;;;5.20;1.20;;;5.60;85.10;;;;;;6212902;23;20525;-82
2021/03/08 16:10:48;;;;;;;3.23;0.90;;;5.60;87.00;;;;;;6213904;23;20187;-80
2021/03/08 16:13:15;;;;;;;4.80;1.10;;;5.60;86.10;;;;;;6214701;23;20159;-80
2021/03/08 16:15:41;;;;;;;5.33;1.00;;;5.50;86.70;;;;;;6212413;23;20164;-82
2021/03/08 16:18:07;;;;;;;2.67;0.90;;;5.40;86.80;;;;;;6213125;23;20205;-81
2021/03/08 16:20:32;;;;;;;3.50;1.00;;;5.30;86.00;;;;;;6213177;23;20186;-80
2021/03/08 16:22:58;;;;;;;5.63;1.20;;;5.30;86.50;;;;;;6212448;23;20162;-81
2021/03/08 16:25:23;;;;;;;4.80;1.03;;;5.20;85.80;;;;;;6211193;23;20239;-80
2021/03/08 16:27:49;;;;;;;3.20;0.90;;;5.30;91.40;;;;;;6211803;23;20163;-79
2021/03/08 16:30:15;;;;;;;2.57;1.00;;;5.30;85.70;;;;;;6212337;23;20894;-81
2021/03/08 16:32:41;;;;;;;3.07;0.80;;;5.20;86.60;;;;;;6214011;23;20185;-81
2021/03/08 16:35:07;;;;;;;3.80;1.00;;;5.10;84.10;;;;;;6213989;23;20154;-80
2021/03/08 16:37:33;;;;;;;2.67;0.93;;;5.00;84.10;;;;;;6213296;23;20159;-80
2021/03/08 16:39:59;;;;;;;3.40;0.77;;;4.90;80.20;;;;;;6212742;23;20235;-81
2021/03/08 16:42:24;;;;;;;1.50;0.60;;;4.80;81.40;;;;;;6211037;23;20187;-80
2021/03/08 16:44:50;;;;;;;4.03;0.70;;;4.70;80.30;;;;;;6212263;23;20179;-81
2021/03/08 16:47:19;;;;;;;3.07;0.80;;;4.70;80.80;;;;;;6212531;23;20161;-80
2021/03/08 16:49:45;;;;;;;4.17;0.80;;;4.60;79.40;;;;;;6212555;23;20156;-81
2021/03/08 16:52:10;;;;;;;1.47;0.30;;;4.60;79.20;;;;;;6213323;23;20254;-81
2021/03/08 16:54:36;;;;;;;1.57;0.57;;;4.60;75.80;;;;;;6212893;23;20164;-82
2021/03/08 16:57:01;;;;;;;4.27;0.60;;;4.50;75.50;;;;;;6211999;23;20160;-79
2021/03/08 16:59:27;;;;;;;2.10;0.70;;;4.50;73.80;;;;;;6211351;23;20169;-81
2021/03/08 17:01:54;;;;;;;4.30;0.63;;;4.50;77.90;;;;;;6213198;23;20187;-80
2021/03/08 17:04:20;;;;;;;4.90;0.80;;;4.40;73.50;;;;;;6211427;23;20150;-81
2021/03/08 17:06:45;;;;;;;2.30;0.57;;;4.30;72.80;;;;;;6214844;23;20148;-79
2021/03/08 17:09:11;;;;;;;4.23;0.77;;;4.30;80.60;;;;;;6211885;23;20152;-79
2021/03/08 17:11:37;;;;;;;2.57;0.70;;;4.30;75.60;;;;;;6211605;23;20177;-81
2021/03/08 17:14:02;;;;;;;2.13;0.50;;;4.30;74.50;;;;;;6212439;23;20581;-80
2021/03/08 17:16:28;;;;;;;4.60;1.07;;;4.20;71.80;;;;;;6214091;23;20167;-81
2021/03/08 17:18:54;;;;;;;3.20;0.90;;;4.20;71.30;;;;;;6189956;23;20156;-80
2021/03/08 17:21:20;;;;;;;2.43;0.70;;;4.10;69.80;;;;;;6214579;23;20183;-80
2021/03/08 17:23:45;;;;;;;3.00;0.70;;;4.10;72.50;;;;;;6214370;23;20154;-80
2021/03/08 17:26:11;;;;;;;3.70;0.80;;;4.10;75.80;;;;;;6214812;23;20158;-80
2021/03/08 17:28:37;;;;;;;2.77;0.70;;;4.00;73.50;;;;;;6213989;23;20150;-81
2021/03/08 17:31:03;;;;;;;4.80;1.00;;;4.10;73.90;;;;;;6214968;23;20183;-80
2021/03/08 17:33:29;;;;;;;3.10;1.07;;;4.10;77.50;;;;;;6189717;23;20190;-80
2021/03/08 17:35:55;;;;;;;2.73;0.70;;;4.10;74.80;;;;;;6189630;23;20231;-80
2021/03/08 17:38:25;;;;;;;2.27;0.80;;;4.10;77.90;;;;;;6189949;23;20163;-81
2021/03/08 17:44:12;;;;;;;3.83;1.20;;;4.00;76.50;;;;;;6216351;23;20139;-80
2021/03/08 17:46:38;;;;;;;5.33;1.00;;;3.80;76.40;;;;;;6216250;23;20509;-81
2021/03/08 17:49:04;;;;;;;5.70;1.40;;;4.00;81.20;;;;;;6214117;23;20400;-82
2021/03/08 17:51:29;;;;;;;3.23;1.20;;;4.10;99.90;;;;;;6213921;23;20277;-81
2021/03/08 17:53:55;;;;;;;6.10;1.30;;;4.10;97.70;;;;;;6214913;23;20487;-80
2021/03/08 17:59:43;;;;;;;6.50;0.90;;;4.10;90.40;;;;;;6215961;23;20135;-81
2021/03/08 18:02:09;;;;;;;8.23;1.50;;;4.00;88.40;;;;;;6214206;23;20274;-81
2021/03/08 18:04:34;;;;;;;8.27;2.50;;;4.00;87.10;;;;;;6214624;23;20752;-80
2021/03/08 18:07:02;;;;;;;7.13;2.20;;;3.80;81.60;;;;;;6214869;23;20154;-80
2021/03/08 18:09:28;;;;;;;6.27;1.83;;;3.70;84.20;;;;;;6213893;23;20278;-80
2021/03/08 18:11:54;;;;;;;7.40;1.97;;;3.60;86.10;;;;;;6215010;23;20171;-80
2021/03/08 18:14:19;;;;;;;7.53;2.10;;;3.50;89.30;;;;;;6214204;23;20186;-80
2021/03/08 18:16:45;;;;;;;8.17;2.60;;;3.60;91.40;;;;;;6214193;23;20217;-80
2021/03/08 18:19:11;;;;;;;9.70;2.07;;;3.60;91.10;;;;;;6214313;23;20155;-80
2021/03/08 18:21:37;;;;;;;4.10;1.30;;;3.50;91.30;;;;;;6213776;23;20200;-80
2021/03/08 18:24:03;;;;;;;6.73;1.53;;;3.40;91.60;;;;;;6213454;23;20158;-80
2021/03/08 18:26:29;;;;;;;5.77;1.50;;;3.40;92.60;;;;;;6213150;23;20160;-80
2021/03/08 18:28:54;;;;;;;5.20;1.20;;;3.40;92.20;;;;;;6213119;23;20214;-81
2021/03/08 18:31:20;;;;;;;5.30;1.40;;;3.20;93.20;;;;;;6215251;23;20168;-79
2021/03/08 18:33:45;;;;;;;5.83;1.23;;;3.30;93.50;;;;;;6213974;23;20156;-79
2021/03/08 18:36:11;;;;;;;3.97;0.90;;;3.20;93.20;;;;;;6213625;23;20538;-79
2021/03/08 18:38:37;;;;;;;4.70;1.20;;;3.20;94.70;;;;;;6212668;23;20265;-79
2021/03/08 18:41:02;;;;;;;3.80;1.30;;;3.20;95.00;;;;;;6212819;23;20643;-80
2021/03/08 18:47:12;;;;;;;6.37;1.80;;;3.30;97.30;;;;;;6215324;23;20139;-79
2021/03/08 18:49:37;;;;;;;9.10;2.30;;;3.30;97.20;;;;;;6188759;23;20221;-78
2021/03/08 18:52:03;;;;;;;7.17;2.37;;;3.30;96.40;;;;;;6214219;23;20551;-78
2021/03/08 18:54:28;;;;;;;9.17;2.20;;;3.30;96.20;;;;;;6213107;23;20196;-79
2021/03/08 18:56:54;;;;;;;11.50;2.37;;;3.20;95.40;;;;;;6213986;23;20535;-79
2021/03/08 18:59:20;;;;;;;10.80;2.87;;;3.20;95.40;;;;;;6213806;23;20155;-80
2021/03/08 19:01:45;;;;;;;10.93;3.63;;;3.20;97.00;;;;;;6213041;23;20187;-79
2021/03/08 19:04:11;;;;;;;14.93;3.43;;;3.20;98.00;;;;;;6212679;23;20156;-79
2021/03/08 19:06:36;;;;;;;13.73;3.67;;;3.10;97.90;;;;;;6213160;23;20178;-79
2021/03/08 19:09:02;;;;;;;12.67;3.10;;;3.10;94.70;;;;;;6213944;23;20151;-80
2021/03/08 19:11:28;;;;;;;12.63;3.27;;;3.00;94.40;;;;;;6188165;23;20183;-79
2021/03/08 19:13:54;;;;;;;6.90;2.00;;;3.00;97.40;;;;;;6213017;23;20156;-79
2021/03/08 19:16:20;;;;;;;6.93;2.00;;;3.00;95.00;;;;;;6214686;23;20155;-79
2021/03/08 19:18:46;;;;;;;6.70;1.80;;;2.90;96.30;;;;;;6213330;23;20156;-79
2021/03/08 19:21:12;;;;;;;8.43;2.40;;;2.90;96.20;;;;;;6213037;23;20245;-78
2021/03/08 19:23:39;;;;;;;8.60;2.70;;;2.90;95.40;;;;;;6187476;23;20163;-79
2021/03/08 19:26:05;;;;;;;9.03;2.83;;;2.90;95.50;;;;;;6212975;23;20491;-79
2021/03/08 19:28:31;;;;;;;15.70;2.73;;;2.90;96.70;;;;;;6213722;23;20605;-80
2021/03/08 19:30:57;;;;;;;8.10;2.53;;;2.90;97.30;;;;;;6212474;23;20183;-79
2021/03/08 19:33:23;;;;;;;8.83;2.00;;;2.80;97.70;;;;;;6212314;23;20155;-79
2021/03/08 19:35:48;;;;;;;14.10;3.07;;;2.80;97.90;;;;;;6212242;23;20194;-79
2021/03/08 19:38:14;;;;;;;9.73;2.83;;;2.70;96.80;;;;;;6212054;23;20183;-79
2021/03/08 19:40:39;;;;;;;9.90;2.73;;;2.70;98.50;;;;;;6212143;23;20230;-79
2021/03/08 19:43:05;;;;;;;12.07;2.73;;;2.70;98.60;;;;;;6214820;23;20202;-79
2021/03/08 19:45:31;;;;;;;7.37;1.97;;;2.60;99.20;;;;;;6188345;23;20186;-80
2021/03/08 19:47:56;;;;;;;5.90;1.80;;;2.60;98.00;;;;;;6213996;23;20596;-79
2021/03/08 19:50:22;;;;;;;10.73;2.73;;;2.50;98.10;;;;;;6214200;23;20209;-81
2021/03/08 19:52:51;;;;;;;6.63;1.87;;;2.50;99.90;;;;;;6212966;23;20151;-79
2021/03/08 19:55:18;;;;;;;4.70;1.77;;;2.50;99.90;;;;;;6211443;23;20205;-79
2021/03/08 19:57:59;;;;;;;4.13;1.43;;;2.50;99.60;;;;;;6189519;23;20155;-79
2021/03/08 20:00:25;;;;;;;5.10;1.50;;;2.50;99.90;;;;;;6213989;23;20147;-79
2021/03/08 20:02:51;;;;;;;5.17;1.70;;;2.50;99.90;;;;;;6214296;23;20234;-80
2021/03/08 20:05:18;;;;;;;6.20;1.73;;;2.50;99.90;;;;;;6214720;23;20151;-79
2021/03/08 20:07:43;;;;;;;9.83;1.87;;;2.40;99.90;;;;;;6214690;23;20152;-79
2021/03/08 20:10:09;;;;;;;4.73;1.50;;;2.40;99.90;;;;;;6214382;23;20167;-79
2021/03/08 20:12:35;;;;;;;6.50;1.60;;;2.40;99.90;;;;;;6187484;23;20222;-83
2021/03/08 20:15:03;;;;;;;10.90;2.40;;;2.30;99.90;;;;;;6214521;23;20195;-78
2021/03/08 20:17:28;;;;;;;10.80;2.53;;;2.20;99.90;;;;;;6213996;23;20175;-78
2021/03/08 20:19:55;;;;;;;10.13;2.70;;;2.10;99.90;;;;;;6214137;23;20210;-79
2021/03/08 20:22:21;;;;;;;15.20;4.23;;;2.10;99.90;;;;;;6212933;23;20679;-78
2021/03/08 20:24:46;;;;;;;6.93;2.23;;;2.00;99.90;;;;;;6213134;23;20171;-79
2021/03/08 20:27:12;;;;;;;6.50;1.90;;;1.90;99.90;;;;;;6214059;23;20152;-79
2021/03/08 20:29:38;;;;;;;5.13;1.40;;;2.00;99.90;;;;;;6213722;23;20151;-80
2021/03/08 20:32:05;;;;;;;4.67;1.43;;;2.00;99.90;;;;;;6214596;23;20269;-80
2021/03/08 20:34:31;;;;;;;6.03;1.37;;;1.90;99.90;;;;;;6213375;23;20160;-79
2021/03/08 20:36:56;;;;;;;3.83;1.30;;;1.90;99.90;;;;;;6214630;23;20558;-79
2021/03/08 20:39:22;;;;;;;5.20;1.20;;;1.90;99.90;;;;;;6214111;23;20243;-79
2021/03/08 20:41:47;;;;;;;4.10;1.40;;;1.90;99.90;;;;;;6215216;23;20190;-79
2021/03/08 20:44:13;;;;;;;4.37;1.33;;;1.90;99.90;;;;;;6214161;23;20243;-79
2021/03/08 20:46:38;;;;;;;4.37;1.47;;;1.90;99.90;;;;;;6213687;23;20156;-78
2021/03/08 20:49:04;;;;;;;5.47;1.57;;;1.90;99.90;;;;;;6212708;23;20160;-79
2021/03/08 20:51:33;;;;;;;3.47;1.20;;;1.90;99.90;;;;;;6212955;23;20221;-78
2021/03/08 20:54:05;;;;;;;5.77;1.77;;;1.80;99.90;;;;;;6212842;23;20853;-78
2021/03/08 20:56:36;;;;;;;4.20;1.37;;;1.80;99.90;;;;;;6212448;23;20163;-78
2021/03/08 20:59:02;;;;;;;6.07;1.87;;;1.70;99.90;;;;;;6213207;23;20595;-78
2021/03/08 21:01:27;;;;;;;4.87;1.53;;;1.70;99.90;;;;;;6212689;23;20183;-80
2021/03/08 21:03:53;;;;;;;4.70;1.30;;;1.70;99.90;;;;;;6213470;23;20156;-79
2021/03/08 21:06:19;;;;;;;4.43;1.60;;;1.70;99.90;;;;;;6213052;23;20151;-78
2021/03/08 21:08:50;;;;;;;12.33;2.57;;;1.70;99.90;;;;;;6214120;23;20159;-78
2021/03/08 21:11:16;;;;;;;11.00;2.67;;;1.70;99.90;;;;;;6189177;23;20187;-80
2021/03/08 21:13:42;;;;;;;10.50;1.87;;;1.60;99.90;;;;;;6213722;23;20519;-78
2021/03/08 21:16:07;;;;;;;6.70;1.87;;;1.60;99.90;;;;;;6212577;23;20596;-79
2021/03/08 21:18:33;;;;;;;8.00;1.53;;;1.50;99.90;;;;;;6212789;23;20636;-77
2021/03/08 21:20:58;;;;;;;4.07;1.40;;;1.30;99.90;;;;;;6212924;23;20674;-78
2021/03/08 21:23:29;;;;;;;7.17;2.00;;;1.30;99.90;;;;;;6212988;23;20179;-78
2021/03/08 21:25:55;;;;;;;4.70;1.30;;;1.40;99.90;;;;;;6213335;23;20599;-79
2021/03/08 21:28:20;;;;;;;6.63;1.83;;;1.40;99.90;;;;;;6213072;23;20234;-78
2021/03/08 21:30:46;;;;;;;4.23;1.50;;;1.30;99.90;;;;;;6212832;23;20619;-79
2021/03/08 21:33:12;;;;;;;5.53;1.30;;;1.30;99.90;;;;;;6212507;23;20258;-79
2021/03/08 21:35:37;;;;;;;6.47;2.13;;;1.40;99.90;;;;;;6213091;23;20616;-79
2021/03/08 21:38:03;;;;;;;7.30;2.03;;;1.30;99.90;;;;;;6212898;23;20163;-79
2021/03/08 21:40:29;;;;;;;5.40;1.67;;;1.30;99.90;;;;;;6212581;23;20238;-79
2021/03/08 21:42:55;;;;;;;8.17;2.00;;;1.20;99.90;;;;;;6213672;23;20198;-78
2021/03/08 21:45:20;;;;;;;6.47;1.70;;;1.20;99.90;;;;;;6212114;23;20155;-79
2021/03/08 21:47:46;;;;;;;6.10;1.90;;;1.20;99.90;;;;;;6213742;23;20182;-79
2021/03/08 21:50:16;;;;;;;7.67;2.10;;;1.20;99.90;;;;;;6213734;23;20152;-79
2021/03/08 21:52:41;;;;;;;7.40;1.97;;;1.20;99.90;;;;;;6213352;23;20175;-81
2021/03/08 21:55:09;;;;;;;4.97;1.73;;;1.10;99.90;;;;;;6213549;23;20156;-79
2021/03/08 21:57:35;;;;;;;4.87;1.80;;;1.20;99.90;;;;;;6213570;23;20493;-78
2021/03/08 22:00:02;;;;;;;8.20;2.20;;;1.10;99.90;;;;;;6213557;23;20186;-78
2021/03/08 22:02:28;;;;;;;10.23;2.50;;;1.10;99.90;;;;;;6213299;23;20634;-78
2021/03/08 22:04:53;;;;;;;9.20;2.30;;;1.10;99.90;;;;;;6213339;23;20178;-79
2021/03/08 22:07:19;;;;;;;7.83;2.03;;;1.00;99.90;;;;;;6213634;23;20614;-78
2021/03/08 22:09:45;;;;;;;9.33;2.47;;;1.00;99.90;;;;;;6213275;23;20183;-79
2021/03/08 22:12:10;;;;;;;7.33;2.40;;;0.90;99.90;;;;;;6213207;23;20686;-79
2021/03/08 22:14:36;;;;;;;8.13;2.63;;;0.90;99.90;;;;;;6213382;23;20160;-79
2021/03/08 22:17:02;;;;;;;9.70;2.60;;;0.90;99.90;;;;;;6213200;23;20179;-79
2021/03/08 22:19:27;;;;;;;7.10;1.90;;;0.90;99.90;;;;;;6213410;23;20155;-78
2021/03/08 22:21:53;;;;;;;5.30;1.93;;;0.90;99.90;;;;;;6213153;23;20198;-80
2021/03/08 22:24:18;;;;;;;8.47;2.00;;;1.00;99.90;;;;;;6213355;23;20155;-80